^^
Saratoga-Weather Station Historical Data
Daily Summary for January 17, 2020 Units:  English    Metric   Both
Daily Weekly Monthly Yearly Custom
  High: Low: Average:
Temperature: 50.4 °F 41.2 °F 46 °F
Dew Point: 47.5 °F 40.5 °F 44.4 °F
Humidity: 98% 86% 94%
Wind Speed: 8.1mph 0mph 0.7mph
Wind Gust: 11mph - -
Wind- - SW
Pressure: 30.2 in 30 in -
Precipitation: 0.02 in    
Historical Graphs
 
 
Tabular Data for January 17, 2020
Time Temperature Dew Point Pressure Wind Wind Speed Wind Gust Humidity Rainfall Rate (Hourly) solar
00:04 42.1 °F 41.4 °F 30 in Calm     97% 0 in 0 W/m2
00:09 42.1 °F 41.4 °F 30 in Calm     97% 0 in 0 W/m2
00:14 41.9 °F 41.2 °F 30 in Calm     97% 0 in 0 W/m2
00:19 41.7 °F 41 °F 30 in Calm     97% 0 in 0 W/m2
00:24 41.5 °F 40.8 °F 30 in Calm     97% 0 in 0 W/m2
00:29 41.5 °F 40.8 °F 30 in Calm     97% 0 in 0 W/m2
00:34 41.5 °F 40.8 °F 30 in Calm     97% 0 in 0 W/m2
00:52 41.5 °F 40.8 °F 30 in Calm     97% 0 in 0 W/m2
00:57 41.5 °F 40.8 °F 30 in Calm     97% 0 in 0 W/m2
01:02 41.5 °F 40.8 °F 30 in Calm     97% 0 in 0 W/m2
01:07 41.5 °F 40.8 °F 30 in Calm     97% 0 in 0 W/m2
01:12 41.5 °F 40.8 °F 30 in Calm     97% 0 in 0 W/m2
01:17 41.5 °F 40.8 °F 30 in Calm     97% 0 in 0 W/m2
01:22 41.5 °F 40.8 °F 30 in Calm     97% 0 in 0 W/m2
01:27 41.5 °F 41 °F 30 in Calm     98% 0 in 0 W/m2
01:32 41.5 °F 41 °F 30 in Calm     98% 0 in 0 W/m2
01:37 41.5 °F 41 °F 30 in Calm     98% 0 in 0 W/m2
01:42 41.7 °F 41.2 °F 30 in Calm     98% 0 in 0 W/m2
01:47 41.7 °F 41 °F 30 in Calm     97% 0 in 0 W/m2
01:52 41.7 °F 41 °F 30 in Calm     97% 0 in 0 W/m2
01:57 41.9 °F 41.4 °F 30 in Calm     98% 0 in 0 W/m2
02:02 41.9 °F 41.4 °F 30 in Calm     98% 0 in 0 W/m2
02:07 41.9 °F 41.2 °F 30 in Calm     97% 0 in 0 W/m2
02:12 41.7 °F 41 °F 30 in Calm     97% 0 in 0 W/m2
02:17 41.7 °F 41.2 °F 30 in Calm     98% 0 in 0 W/m2
02:22 41.5 °F 41 °F 30 in Calm     98% 0 in 0 W/m2
02:27 41.5 °F 41 °F 30 in Calm     98% 0 in 0 W/m2
02:32 41.4 °F 40.6 °F 30 in Calm     97% 0 in 0 W/m2
02:37 41.4 °F 40.6 °F 30 in Calm     97% 0 in 0 W/m2
02:42 41.2 °F 40.5 °F 30 in Calm     97% 0 in 0 W/m2
02:47 41.2 °F 40.5 °F 30 in Calm     97% 0 in 0 W/m2
02:52 41.2 °F 40.5 °F 30 in Calm     97% 0 in 0 W/m2
02:57 41.2 °F 40.6 °F 30 in Calm     98% 0 in 0 W/m2
03:02 41.2 °F 40.6 °F 30 in Calm     98% 0 in 0 W/m2
03:07 41.2 °F 40.5 °F 30 in Calm     97% 0 in 0 W/m2
03:12 41.4 °F 40.6 °F 30 in Calm     97% 0 in 0 W/m2
03:17 41.4 °F 40.6 °F 30 in Calm     97% 0 in 0 W/m2
03:22 41.4 °F 40.8 °F 30 in Calm     98% 0 in 0 W/m2
03:27 41.4 °F 40.8 °F 30 in Calm     98% 0 in 0 W/m2
03:32 41.2 °F 40.6 °F 30 in Calm     98% 0 in 0 W/m2
03:37 41.2 °F 40.6 °F 30 in Calm     98% 0 in 0 W/m2
03:42 41.2 °F 40.6 °F 30 in Calm     98% 0 in 0 W/m2
03:47 41.2 °F 40.6 °F 30 in Calm     98% 0 in 0 W/m2
03:52 41.2 °F 40.6 °F 30 in Calm     98% 0 in 0 W/m2
03:57 41.4 °F 40.8 °F 30 in Calm     98% 0 in 0 W/m2
04:02 41.4 °F 40.8 °F 30 in Calm     98% 0 in 0 W/m2
04:07 41.5 °F 41 °F 30 in Calm     98% 0 in 0 W/m2
04:12 41.5 °F 41 °F 30 in Calm     98% 0 in 0 W/m2
04:17 41.5 °F 41 °F 30 in Calm     98% 0 in 0 W/m2
04:22 41.5 °F 41 °F 30 in Calm     98% 0 in 0 W/m2
04:27 41.7 °F 41.2 °F 30 in Calm     98% 0 in 0 W/m2
04:32 41.7 °F 41.2 °F 30 in Calm     98% 0 in 0 W/m2
04:37 41.7 °F 41.2 °F 30 in Calm     98% 0 in 0 W/m2
04:42 41.9 °F 41.4 °F 30 in Calm     98% 0 in 0 W/m2
04:47 41.9 °F 41.4 °F 30 in Calm     98% 0 in 0 W/m2
04:52 42.1 °F 41.5 °F 30 in Calm     98% 0 in 0 W/m2
05:11 42.3 °F 41.7 °F 30 in Calm     98% 0 in 0 W/m2
05:16 42.3 °F 41.7 °F 30 in Calm     98% 0 in 0 W/m2
05:21 42.3 °F 41.7 °F 30 in Calm     98% 0 in 0 W/m2
05:26 42.3 °F 41.7 °F 30 in Calm     98% 0 in 0 W/m2
05:31 42.3 °F 41.7 °F 30 in ENE 2 mph 2 mph 98% 0 in 0 W/m2
05:36 42.3 °F 41.7 °F 30 in ESE 0.9 mph 3 mph 98% 0 in 0 W/m2
05:41 42.4 °F 41.9 °F 30 in SE 2 mph 3 mph 98% 0 in 0 W/m2
05:46 42.8 °F 42.3 °F 30 in SE 0.9 mph 2 mph 98% 0 in 0 W/m2
05:51 43 °F 42.4 °F 30 in ESE 0.9 mph 3 mph 98% 0 in 0 W/m2
05:56 43.2 °F 42.6 °F 30 in ESE 2 mph 2 mph 98% 0 in 0 W/m2
06:01 43.2 °F 42.6 °F 30 in Calm     98% 0 in 0 W/m2
06:06 43.2 °F 42.6 °F 30 in Calm   2 mph 98% 0 in 0 W/m2
06:11 43 °F 42.4 °F 30 in Calm   2 mph 98% 0 in 0 W/m2
06:16 43 °F 42.4 °F 30 in Calm     98% 0 in 0 W/m2
06:21 43 °F 42.4 °F 30 in Calm   1 mph 98% 0 in 0 W/m2
06:26 43.5 °F 43 °F 30 in Calm   2 mph 98% 0 in 0 W/m2
06:31 43.9 °F 43.3 °F 30 in NW 2 mph 3 mph 98% 0 in 0 W/m2
06:36 44.4 °F 43.9 °F 30 in North 0.9 mph 2 mph 98% 0 in 0 W/m2
06:41 45 °F 44.4 °F 30 in SE 0.9 mph 4 mph 98% 0 in 0 W/m2
06:46 45.1 °F 44.6 °F 30 in NNW 0.9 mph 3 mph 98% 0 in 0 W/m2
06:51 45.7 °F 45.1 °F 30 in Calm   2 mph 98% 0 in 0 W/m2
06:56 45.7 °F 45.1 °F 30.1 in East 6 mph 6 mph 98% 0 in 0 W/m2
07:01 46 °F 45.5 °F 30.1 in Calm   6 mph 98% 0 in 0 W/m2
07:06 46.4 °F 45.9 °F 30.1 in Calm   4 mph 98% 0 in 0 W/m2
07:11 46.8 °F 46.2 °F 30.1 in Calm   2 mph 98% 0 in 0 W/m2
07:16 46.8 °F 46.2 °F 30.1 in ESE 2 mph 6 mph 98% 0 in 0 W/m2
07:21 46.9 °F 46.4 °F 30.1 in WNW 0.9 mph 5 mph 98% 0 in 0 W/m2
07:26 46.9 °F 46.4 °F 30.1 in NW 0.9 mph 3 mph 98% 0.01 in 0 W/m2
07:46 47.1 °F 46.4 °F 30.1 in SE 2.9 mph 5 mph 97% 0.01 in 0 W/m2
07:51 47.1 °F 46.4 °F 30.1 in NW 0.9 mph 4 mph 97% 0.01 in 0 W/m2
07:56 47.1 °F 46 °F 30.1 in West 4 mph 7 mph 96% 0.02 in 0 W/m2
08:01 47.1 °F 46 °F 30.1 in West 0.9 mph 3 mph 96% 0.02 in 0 W/m2
08:06 47.1 °F 46 °F 30.1 in WSW 0.9 mph 2 mph 96% 0.02 in 0 W/m2
08:11 47.1 °F 46 °F 30.1 in Calm   3 mph 96% 0.02 in 0 W/m2
08:32 46.9 °F 45.9 °F 30.1 in SSE 0.9 mph 2 mph 96% 0.01 in 5 W/m2
08:37 46.8 °F 45.7 °F 30.1 in Calm   2 mph 96% 0.02 in 0 W/m2
08:42 46.8 °F 45.7 °F 30.1 in Calm   3 mph 96% 0.02 in 5 W/m2
08:47 46.8 °F 45.7 °F 30.1 in WSW 2 mph 4 mph 96% 0.02 in 9 W/m2
08:52 46.8 °F 45.7 °F 30.1 in Calm   1 mph 96% 0.01 in 9 W/m2
08:57 46.6 °F 45.5 °F 30.1 in Calm   3 mph 96% 0.01 in 12 W/m2
09:02 46.6 °F 45.5 °F 30.1 in Calm   1 mph 96% 0.01 in 16 W/m2
09:07 46.6 °F 45.5 °F 30.1 in WSW 0.9 mph 2 mph 96% 0.01 in 19 W/m2
09:12 46.8 °F 45.7 °F 30.1 in Calm   3 mph 96% 0.01 in 21 W/m2
09:17 46.8 °F 45.7 °F 30.1 in WNW 2 mph 2 mph 96% 0.01 in 26 W/m2
09:22 46.8 °F 45.7 °F 30.1 in Calm   1 mph 96% 0.01 in 32 W/m2
09:27 46.8 °F 45.7 °F 30.1 in Calm   1 mph 96% 0.01 in 26 W/m2
09:32 46.8 °F 45.7 °F 30.1 in Calm   3 mph 96% 0.01 in 25 W/m2
09:50 46.9 °F 45.9 °F 30.1 in WNW 0.9 mph 2 mph 96% 0 in 32 W/m2
09:55 47.1 °F 46 °F 30.1 in Calm   2 mph 96% 0 in 40 W/m2
10:00 47.1 °F 46 °F 30.1 in WNW 0.9 mph 2 mph 96% 0 in 62 W/m2
10:05 47.1 °F 46 °F 30.1 in NW 0.9 mph 3 mph 96% 0 in 76 W/m2
10:10 47.3 °F 46.2 °F 30.1 in Calm   2 mph 96% 0 in 77 W/m2
10:15 47.5 °F 46 °F 30.1 in Calm   2 mph 95% 0 in 76 W/m2
10:20 47.7 °F 46.2 °F 30.1 in Calm   1 mph 95% 0 in 72 W/m2
10:25 47.7 °F 46.2 °F 30.1 in West 2 mph 7 mph 95% 0 in 100 W/m2
10:30 47.7 °F 46.2 °F 30.1 in NW 0.9 mph   95% 0 in 97 W/m2
10:35 47.8 °F 46.4 °F 30.2 in WNW 0.9 mph 7 mph 95% 0 in 93 W/m2
10:40 48 °F 46.6 °F 30.2 in WNW 2 mph 3 mph 95% 0 in 83 W/m2
10:45 48 °F 46.6 °F 30.2 in WNW 2 mph 8 mph 95% 0 in 81 W/m2
10:50 48.2 °F 46.6 °F 30.2 in North 2 mph 3 mph 94% 0 in 105 W/m2
10:55 48.2 °F 46.6 °F 30.2 in Calm   8 mph 94% 0 in 91 W/m2
11:00 48.4 °F 46.8 °F 30.2 in NW 4 mph 4 mph 94% 0 in 95 W/m2
11:05 48.4 °F 46.8 °F 30.2 in WNW 8.1 mph 11 mph 94% 0 in 113 W/m2
11:10 48.6 °F 46.6 °F 30.2 in SW 6 mph 6 mph 93% 0 in 86 W/m2
11:15 48.7 °F 46.8 °F 30.2 in North 2.9 mph 11 mph 93% 0 in 105 W/m2
11:20 48.7 °F 46.8 °F 30.2 in WNW 2 mph 6 mph 93% 0 in 162 W/m2
11:25 48.9 °F 46.9 °F 30.2 in WNW 0.9 mph 4 mph 93% 0 in 93 W/m2
11:30 49.1 °F 46.9 °F 30.2 in NW 2 mph 6 mph 92% 0 in 93 W/m2
11:35 49.1 °F 46.9 °F 30.2 in NNW 2.9 mph 6 mph 92% 0 in 53 W/m2
11:40 49.1 °F 46.9 °F 30.2 in NW 2 mph 8 mph 92% 0 in 60 W/m2
11:45 49.1 °F 46.9 °F 30.2 in NW 2 mph 8 mph 92% 0 in 105 W/m2
11:50 49.3 °F 47.1 °F 30.2 in Calm   3 mph 92% 0 in 128 W/m2
11:55 49.5 °F 47.3 °F 30.2 in WNW 4 mph 5 mph 92% 0 in 135 W/m2
12:00 49.5 °F 47.3 °F 30.2 in WNW 2.9 mph 5 mph 92% 0 in 100 W/m2
12:05 49.6 °F 47.5 °F 30.2 in NW 4 mph 5 mph 92% 0 in 67 W/m2
12:10 49.6 °F 47.1 °F 30.2 in NW 0.9 mph 3 mph 91% 0 in 98 W/m2
12:15 49.6 °F 47.1 °F 30.2 in Calm   2 mph 91% 0 in 113 W/m2
12:20 49.8 °F 47.3 °F 30.2 in NNW 2 mph 4 mph 91% 0 in 116 W/m2
12:25 49.8 °F 47.3 °F 30.2 in NW 2.9 mph 4 mph 91% 0 in 79 W/m2
12:30 50 °F 47.5 °F 30.2 in West 2.9 mph 3 mph 91% 0 in 62 W/m2
12:35 49.8 °F 46.9 °F 30.2 in WNW 0.9 mph 11 mph 90% 0 in 77 W/m2
12:40 49.8 °F 46.9 °F 30.2 in West 6 mph 10 mph 90% 0 in 63 W/m2
12:45 49.8 °F 46.9 °F 30.2 in West 2.9 mph 6 mph 90% 0 in 63 W/m2
12:50 49.8 °F 46.9 °F 30.2 in West 2 mph 10 mph 90% 0 in 86 W/m2
12:55 49.8 °F 46.9 °F 30.2 in Calm   5 mph 90% 0 in 81 W/m2
13:00 49.8 °F 47.3 °F 30.2 in NW 0.9 mph 7 mph 91% 0 in 91 W/m2
13:05 49.8 °F 46.9 °F 30.2 in WNW 2.9 mph 3 mph 90% 0 in 100 W/m2
13:10 49.8 °F 46.9 °F 30.2 in West 4 mph 7 mph 90% 0 in 53 W/m2
13:15 49.8 °F 46.8 °F 30.2 in WSW 0.9 mph 4 mph 89% 0 in 30 W/m2
13:20 49.6 °F 46.6 °F 30.2 in WSW 6.9 mph 7 mph 89% 0 in 30 W/m2
13:25 49.6 °F 46.2 °F 30.2 in Calm   2 mph 88% 0 in 26 W/m2
13:30 49.6 °F 46.6 °F 30.2 in Calm   2 mph 89% 0 in 28 W/m2
13:35 49.5 °F 46 °F 30.2 in West 0.9 mph 2 mph 88% 0 in 33 W/m2
13:40 49.5 °F 46 °F 30.2 in SW 0.9 mph 3 mph 88% 0 in 46 W/m2
13:45 49.6 °F 46.2 °F 30.2 in Calm   3 mph 88% 0 in 91 W/m2
13:50 49.8 °F 46.4 °F 30.2 in WNW 4 mph 4 mph 88% 0 in 65 W/m2
13:55 49.8 °F 46.4 °F 30.2 in West 0.9 mph 3 mph 88% 0 in 79 W/m2
14:01 50 °F 46.6 °F 30.2 in WNW 2.9 mph 4 mph 88% 0 in 76 W/m2
14:06 50 °F 46.6 °F 30.2 in ESE 0.9 mph 4 mph 88% 0 in 62 W/m2
14:11 50 °F 46.2 °F 30.2 in NE 0.9 mph 3 mph 87% 0 in 69 W/m2
14:16 50.2 °F 46.4 °F 30.2 in Calm   2 mph 87% 0 in 58 W/m2
14:21 50.2 °F 46.4 °F 30.2 in North 2 mph 2 mph 87% 0 in 67 W/m2
14:26 50.2 °F 46.4 °F 30.2 in Calm   4 mph 87% 0 in 63 W/m2
14:31 50.2 °F 46.4 °F 30.2 in North 0.9 mph 6 mph 87% 0 in 91 W/m2
14:36 50.2 °F 46.4 °F 30.2 in WNW 2.9 mph 4 mph 87% 0 in 83 W/m2
14:41 50.2 °F 46.2 °F 30.2 in Calm   5 mph 86% 0 in 98 W/m2
14:46 50.4 °F 46.4 °F 30.2 in Calm   2 mph 86% 0 in 62 W/m2
14:51 50.4 °F 46.4 °F 30.2 in NW 0.9 mph 6 mph 86% 0 in 54 W/m2
14:56 50.4 °F 46.6 °F 30.2 in Calm   2 mph 87% 0 in 60 W/m2
15:01 50.2 °F 46.4 °F 30.2 in NW 0.9 mph 6 mph 87% 0 in 47 W/m2
15:06 50.2 °F 46.2 °F 30.2 in East 0.9 mph 2 mph 86% 0 in 40 W/m2
15:11 50.2 °F 46.2 °F 30.2 in South 0.9 mph 2 mph 86% 0 in 51 W/m2
15:16 50.2 °F 46.2 °F 30.2 in NE 2 mph 3 mph 86% 0 in 51 W/m2
15:21 50.2 °F 46.4 °F 30.2 in West 0.9 mph 3 mph 87% 0 in 35 W/m2
15:26 50.2 °F 46.4 °F 30.2 in Calm     87% 0 in 35 W/m2
15:31 50 °F 46.6 °F 30.2 in Calm   3 mph 88% 0 in 40 W/m2
15:49 49.8 °F 46.4 °F 30.2 in Calm     88% 0 in 12 W/m2
15:54 49.8 °F 46.4 °F 30.2 in Calm   1 mph 88% 0 in 14 W/m2
15:59 49.8 °F 46.8 °F 30.2 in Calm     89% 0 in 11 W/m2
16:04 49.8 °F 46.8 °F 30.2 in Calm   1 mph 89% 0 in 11 W/m2
16:09 49.5 °F 46.4 °F 30.2 in South 0.9 mph 2 mph 89% 0 in 9 W/m2
16:15 49.5 °F 46.4 °F 30.2 in Calm   2 mph 89% 0 in 7 W/m2
16:20 49.5 °F 46.4 °F 30.2 in West 4 mph 4 mph 89% 0 in 11 W/m2
16:25 49.5 °F 46.4 °F 30.2 in West 0.9 mph 6 mph 89% 0 in 9 W/m2
16:30 49.6 °F 46.2 °F 30.2 in Calm   2 mph 88% 0 in 5 W/m2
16:35 49.5 °F 46.4 °F 30.2 in Calm   3 mph 89% 0 in 0 W/m2
16:40 49.5 °F 46.4 °F 30.2 in Calm     89% 0 in 0 W/m2
16:45 49.3 °F 46.2 °F 30.2 in Calm     89% 0 in 0 W/m2
16:50 49.1 °F 46 °F 30.2 in SSE 0.9 mph 2 mph 89% 0 in 0 W/m2
16:55 48.9 °F 45.9 °F 30.2 in Calm   1 mph 89% 0 in 0 W/m2
17:00 48.7 °F 45.9 °F 30.2 in Calm   2 mph 90% 0 in 0 W/m2
17:05 48.7 °F 45.9 °F 30.2 in Calm   1 mph 90% 0 in 0 W/m2
17:10 48.4 °F 45.5 °F 30.2 in SSE 0.9 mph 1 mph 90% 0 in 0 W/m2
17:15 48.2 °F 45.3 °F 30.2 in Calm     90% 0 in 0 W/m2
17:36 46.8 °F 44.2 °F 30.2 in SSE 0.9 mph 2 mph 91% 0 in 0 W/m2
17:41 46.2 °F 44.1 °F 30.2 in SSE 0.9 mph 1 mph 92% 0 in 0 W/m2
17:46 46 °F 43.9 °F 30.2 in Calm     92% 0 in 0 W/m2
17:51 45.7 °F 43.5 °F 30.2 in Calm     92% 0 in 0 W/m2
17:56 45.5 °F 43.5 °F 30.2 in Calm     93% 0 in 0 W/m2
18:16 45.5 °F 44.2 °F 30.2 in Calm   2 mph 95% 0 in 0 W/m2
18:21 45.7 °F 44.4 °F 30.2 in East 2 mph 3 mph 95% 0 in 0 W/m2
18:26 45.9 °F 44.4 °F 30.2 in East 0.9 mph 3 mph 95% 0 in 0 W/m2
18:32 46.2 °F 44.6 °F 30.2 in East 0.9 mph 1 mph 94% 0 in 0 W/m2
18:37 46.2 °F 44.6 °F 30.2 in Calm   2 mph 94% 0 in 0 W/m2
18:42 46.2 °F 44.6 °F 30.2 in Calm     94% 0 in 0 W/m2
18:47 46.2 °F 44.6 °F 30.2 in Calm     94% 0 in 0 W/m2
18:52 46 °F 44.4 °F 30.2 in Calm     94% 0 in 0 W/m2
18:57 46 °F 44.4 °F 30.2 in Calm     94% 0 in 0 W/m2
19:02 46 °F 44.4 °F 30.2 in Calm   1 mph 94% 0 in 0 W/m2
19:07 46 °F 44.4 °F 30.2 in Calm   2 mph 94% 0 in 0 W/m2
19:12 46 °F 44.6 °F 30.2 in Calm     95% 0 in 0 W/m2
19:17 46 °F 44.6 °F 30.2 in Calm   2 mph 95% 0 in 0 W/m2
19:22 46 °F 44.6 °F 30.2 in Calm     95% 0 in 0 W/m2
19:27 45.9 °F 44.4 °F 30.2 in Calm     95% 0 in 0 W/m2
19:32 45.9 °F 44.4 °F 30.2 in Calm     95% 0 in 0 W/m2
19:37 45.9 °F 44.4 °F 30.2 in Calm     95% 0 in 0 W/m2
19:42 45.9 °F 44.4 °F 30.2 in Calm     95% 0 in 0 W/m2
19:47 45.9 °F 44.4 °F 30.2 in Calm     95% 0 in 0 W/m2
19:52 45.9 °F 44.4 °F 30.2 in Calm     95% 0 in 0 W/m2
19:57 45.9 °F 44.4 °F 30.2 in Calm     95% 0 in 0 W/m2
20:02 46 °F 44.6 °F 30.2 in Calm     95% 0 in 0 W/m2
20:07 46 °F 44.6 °F 30.2 in Calm     95% 0 in 0 W/m2
20:12 46 °F 44.6 °F 30.2 in Calm     95% 0 in 0 W/m2
20:17 46 °F 44.6 °F 30.2 in Calm     95% 0 in 0 W/m2
20:22 46 °F 44.6 °F 30.2 in Calm     95% 0 in 0 W/m2
20:27 45.9 °F 44.4 °F 30.2 in Calm     95% 0 in 0 W/m2
20:32 45.9 °F 44.4 °F 30.2 in Calm     95% 0 in 0 W/m2
20:37 45.9 °F 44.4 °F 30.2 in Calm     95% 0 in 0 W/m2
20:42 45.9 °F 44.4 °F 30.2 in Calm     95% 0 in 0 W/m2
20:47 45.9 °F 44.4 °F 30.2 in ENE 0.9 mph 2 mph 95% 0 in 0 W/m2
20:52 45.7 °F 44.4 °F 30.2 in ENE 0.9 mph 2 mph 95% 0 in 0 W/m2
21:11 46 °F 44.6 °F 30.2 in Calm   2 mph 95% 0 in 0 W/m2
21:16 46.2 °F 44.8 °F 30.2 in NNE 0.9 mph 3 mph 95% 0 in 0 W/m2
21:21 46.6 °F 45.1 °F 30.2 in NNE 0.9 mph 1 mph 95% 0 in 0 W/m2
21:42 46.8 °F 44.8 °F 30.2 in Calm   1 mph 93% 0 in 0 W/m2
21:47 46.9 °F 45 °F 30.2 in NW 2 mph 2 mph 93% 0 in 0 W/m2
21:52 46.9 °F 45 °F 30.2 in WNW 2 mph 7 mph 93% 0 in 0 W/m2
21:57 46.9 °F 44.8 °F 30.2 in ENE 2 mph 3 mph 92% 0 in 0 W/m2
22:02 47.1 °F 45 °F 30.2 in Calm   7 mph 92% 0 in 0 W/m2
22:07 47.1 °F 45 °F 30.2 in Calm   1 mph 92% 0 in 0 W/m2
22:12 47.1 °F 45 °F 30.2 in Calm     92% 0 in 0 W/m2
22:17 46.9 °F 44.8 °F 30.2 in Calm     92% 0 in 0 W/m2
22:22 46.8 °F 44.2 °F 30.2 in Calm     91% 0 in 0 W/m2
22:27 46.2 °F 43.7 °F 30.2 in Calm     91% 0 in 0 W/m2
22:32 45.9 °F 43.7 °F 30.2 in Calm     92% 0 in 0 W/m2
22:37 45.7 °F 43.5 °F 30.2 in Calm     92% 0 in 0 W/m2
22:42 45.3 °F 43.3 °F 30.2 in Calm     93% 0 in 0 W/m2
22:47 45.1 °F 43.2 °F 30.2 in Calm     93% 0 in 0 W/m2
22:52 45 °F 43 °F 30.2 in Calm     93% 0 in 0 W/m2
22:57 44.8 °F 43.2 °F 30.2 in Calm     94% 0 in 0 W/m2
23:02 44.4 °F 42.8 °F 30.2 in Calm     94% 0 in 0 W/m2
23:07 44.4 °F 42.8 °F 30.2 in Calm   1 mph 94% 0 in 0 W/m2
23:12 44.4 °F 43.2 °F 30.2 in NW 0.9 mph 1 mph 95% 0 in 0 W/m2
23:17 44.8 °F 43.5 °F 30.2 in North 0.9 mph 3 mph 95% 0 in 0 W/m2
23:22 45.1 °F 43.9 °F 30.2 in Calm   2 mph 95% 0 in 0 W/m2
23:27 45.5 °F 44.2 °F 30.2 in NW 0.9 mph 3 mph 95% 0 in 0 W/m2
23:32 45.9 °F 44.4 °F 30.2 in Calm   1 mph 95% 0 in 0 W/m2
23:37 46 °F 44.6 °F 30.2 in West 0.9 mph 3 mph 95% 0 in 0 W/m2
23:42 46.2 °F 44.8 °F 30.2 in Calm   3 mph 95% 0 in 0 W/m2
23:47 46.2 °F 44.8 °F 30.2 in Calm   1 mph 95% 0 in 0 W/m2
23:52 46.4 °F 45 °F 30.2 in Calm   1 mph 95% 0 in 0 W/m2
23:57 46.6 °F 45 °F 30.2 in Calm   1 mph 94% 0 in 0 W/m2
Juneau County Weather
Compliments of Weather Underground - 4 mb